Time;durP1;ratioP1;P1;durP2;ratioP2;P2;SDS_P1;SDS_P2;PMS_P1;PMS_P2;Temp;Humidity;BMP_temperature;BMP_pressure;BME280_temperature;BME280_humidity;BME280_pressure;Samples;Min_cycle;Max_cycle;Signal;HPM_P1;HPM_P2
2023/03/20 00:01:25;;;;;;;1.58;0.55;;;22.30;48.80;;;;;;5071985;28;20229;-61
2023/03/20 00:03:58;;;;;;;0.93;0.68;;;22.30;48.80;;;;;;5072405;28;20199;-62
2023/03/20 00:06:30;;;;;;;0.88;0.60;;;22.30;48.90;;;;;;5072566;28;20215;-61
2023/03/20 00:09:01;;;;;;;0.85;0.40;;;22.30;49.40;;;;;;5072661;28;20313;-61
2023/03/20 00:11:34;;;;;;;0.70;0.30;;;22.30;48.80;;;;;;5072563;28;20238;-60
2023/03/20 00:14:06;;;;;;;0.77;0.50;;;22.30;48.80;;;;;;5072397;28;20195;-60
2023/03/20 00:16:38;;;;;;;1.35;0.70;;;22.30;48.80;;;;;;5052861;28;20265;-63
2023/03/20 00:19:16;;;;;;;1.27;0.75;;;22.30;49.40;;;;;;5054679;28;20203;-59
2023/03/20 00:21:47;;;;;;;1.27;0.50;;;22.30;48.80;;;;;;5052080;28;20192;-61
2023/03/20 00:24:18;;;;;;;0.90;0.55;;;22.30;48.70;;;;;;5055118;28;20198;-62
2023/03/20 00:26:50;;;;;;;1.38;0.63;;;22.30;48.70;;;;;;5071669;28;20271;-63
2023/03/20 00:29:25;;;;;;;0.93;0.60;;;22.40;48.70;;;;;;5071249;28;20647;-60
2023/03/20 00:31:56;;;;;;;1.08;0.50;;;22.30;48.60;;;;;;5071506;28;20205;-63
2023/03/20 00:34:30;;;;;;;1.02;0.50;;;22.40;48.70;;;;;;5071506;28;20335;-54
2023/03/20 00:37:01;;;;;;;2.15;0.70;;;22.40;48.70;;;;;;5071901;28;20226;-60
2023/03/20 00:39:33;;;;;;;0.88;0.40;;;22.40;48.70;;;;;;5072051;28;20191;-63
2023/03/20 00:42:05;;;;;;;0.50;0.50;;;22.40;48.70;;;;;;5071904;28;20191;-61
2023/03/20 00:44:38;;;;;;;2.60;0.63;;;22.40;48.70;;;;;;5072266;28;20244;-64
2023/03/20 00:47:14;;;;;;;2.60;0.70;;;22.40;48.70;;;;;;5070468;28;20230;-63
2023/03/20 00:49:48;;;;;;;2.30;0.60;;;22.40;48.70;;;;;;5071294;28;20217;-60
2023/03/20 00:52:23;;;;;;;2.38;0.60;;;22.40;48.70;;;;;;5071230;28;20201;-62
2023/03/20 00:54:54;;;;;;;4.57;0.70;;;22.40;48.70;;;;;;5071612;28;20194;-58
2023/03/20 00:57:28;;;;;;;1.27;0.65;;;22.40;48.70;;;;;;5070791;28;20214;-62
2023/03/20 01:00:03;;;;;;;1.63;0.70;;;22.40;48.80;;;;;;5070514;28;20199;-62
2023/03/20 01:02:34;;;;;;;1.17;0.52;;;22.40;48.70;;;;;;5070618;28;20206;-63
2023/03/20 01:05:07;;;;;;;2.33;0.55;;;22.40;48.70;;;;;;5071036;28;20195;-64
2023/03/20 01:07:38;;;;;;;1.50;0.52;;;22.40;48.50;;;;;;5070867;28;20226;-64
2023/03/20 01:10:10;;;;;;;0.82;0.60;;;22.40;48.40;;;;;;5070935;28;20190;-56
2023/03/20 01:12:42;;;;;;;1.77;0.68;;;22.40;48.30;;;;;;5071036;28;20276;-59
2023/03/20 01:15:22;;;;;;;1.58;0.63;;;22.40;48.30;;;;;;5071153;28;20193;-57
2023/03/20 01:17:52;;;;;;;3.03;0.80;;;22.40;48.30;;;;;;5071373;28;20210;-62
2023/03/20 01:20:28;;;;;;;2.55;0.57;;;22.40;48.30;;;;;;5071474;28;20187;-60
2023/03/20 01:22:59;;;;;;;1.98;0.70;;;22.40;48.20;;;;;;5070951;28;20190;-58
2023/03/20 01:25:29;;;;;;;0.85;0.60;;;22.40;48.30;;;;;;5070665;28;20194;-61
2023/03/20 01:28:00;;;;;;;0.40;0.40;;;22.40;48.30;;;;;;5070670;28;20226;-63
2023/03/20 01:30:32;;;;;;;1.55;0.50;;;22.40;48.40;;;;;;5070885;28;20223;-59
2023/03/20 01:33:07;;;;;;;1.42;0.75;;;22.40;48.40;;;;;;5070863;28;20205;-61
2023/03/20 01:35:41;;;;;;;0.57;0.40;;;22.50;48.40;;;;;;5070520;28;20205;-60
2023/03/20 01:38:15;;;;;;;0.77;0.40;;;22.40;48.40;;;;;;5070754;28;20202;-57
2023/03/20 01:40:52;;;;;;;1.33;0.60;;;22.50;48.40;;;;;;5070937;28;20202;-62
2023/03/20 01:43:24;;;;;;;0.45;0.40;;;22.50;48.40;;;;;;5071154;28;20194;-62
2023/03/20 01:46:01;;;;;;;1.08;0.50;;;22.50;48.40;;;;;;5070886;28;20215;-63
2023/03/20 01:48:58;;;;;;;0.95;0.40;;;22.50;48.40;;;;;;5070033;28;20262;-63
2023/03/20 01:51:31;;;;;;;4.82;0.50;;;22.50;48.30;;;;;;5069013;28;20194;-63
2023/03/20 01:54:05;;;;;;;1.40;0.60;;;22.50;48.30;;;;;;5071217;28;20201;-63
2023/03/20 01:56:39;;;;;;;1.10;0.40;;;22.50;48.30;;;;;;5070442;28;20222;-62
2023/03/20 01:59:15;;;;;;;1.80;0.50;;;22.50;48.30;;;;;;5069636;28;20203;-63
2023/03/20 02:01:47;;;;;;;1.23;0.60;;;22.50;48.30;;;;;;5070113;28;20194;-59
2023/03/20 02:04:19;;;;;;;0.73;0.45;;;22.50;48.30;;;;;;5070652;28;20221;-61
2023/03/20 02:06:52;;;;;;;0.73;0.40;;;22.50;48.40;;;;;;5070591;28;20222;-59
2023/03/20 02:09:22;;;;;;;1.33;0.52;;;22.50;48.40;;;;;;5070686;28;20222;-63
2023/03/20 02:11:55;;;;;;;2.15;0.60;;;22.50;48.40;;;;;;5070491;28;20201;-61
2023/03/20 02:14:27;;;;;;;0.82;0.50;;;22.50;48.40;;;;;;5070098;28;20198;-63
2023/03/20 02:16:58;;;;;;;0.85;0.43;;;22.50;48.50;;;;;;5070735;28;20230;-62
2023/03/20 02:19:38;;;;;;;2.15;0.63;;;22.50;48.40;;;;;;5069173;28;20653;-62
2023/03/20 02:22:37;;;;;;;1.05;0.45;;;22.50;48.40;;;;;;5050444;28;20203;-63
2023/03/20 02:25:31;;;;;;;0.77;0.50;;;22.50;48.40;;;;;;5053469;28;20202;-62
2023/03/20 02:28:38;;;;;;;0.70;0.50;;;22.60;48.40;;;;;;5070702;28;20225;-60
2023/03/20 02:31:46;;;;;;;1.05;0.70;;;22.60;48.50;;;;;;5070277;28;20194;-61
2023/03/20 02:34:48;;;;;;;1.10;0.45;;;22.60;48.40;;;;;;5070952;28;20201;-61
2023/03/20 02:37:52;;;;;;;0.63;0.50;;;22.60;48.40;;;;;;5047463;28;20232;-55
2023/03/20 02:40:32;;;;;;;1.63;0.63;;;22.60;48.40;;;;;;5065206;28;20198;-62
2023/03/20 02:43:11;;;;;;;0.70;0.52;;;22.60;48.40;;;;;;5049943;28;20202;-61
2023/03/20 02:45:50;;;;;;;1.15;0.60;;;22.60;48.50;;;;;;5056934;28;20194;-54
2023/03/20 02:48:31;;;;;;;0.60;0.50;;;22.60;48.50;;;;;;5069907;28;20305;-61
2023/03/20 02:51:06;;;;;;;1.55;0.60;;;22.60;48.60;;;;;;5069890;28;20187;-62
2023/03/20 02:53:51;;;;;;;0.65;0.50;;;22.60;48.60;;;;;;5070405;28;20201;-63
2023/03/20 02:56:30;;;;;;;0.50;0.30;;;22.60;48.70;;;;;;5070395;28;20210;-61
2023/03/20 02:59:09;;;;;;;2.17;0.52;;;22.60;48.60;;;;;;5069277;28;20280;-60
2023/03/20 03:01:43;;;;;;;0.35;0.32;;;22.60;48.60;;;;;;5069285;28;20195;-63
2023/03/20 03:04:18;;;;;;;1.42;0.52;;;22.70;48.70;;;;;;5070285;28;20785;-61
2023/03/20 03:06:54;;;;;;;0.63;0.40;;;22.60;48.60;;;;;;5070379;28;20253;-60
2023/03/20 03:09:32;;;;;;;1.13;0.65;;;22.70;48.70;;;;;;5070115;28;20234;-62
2023/03/20 03:12:08;;;;;;;1.23;0.60;;;22.70;48.70;;;;;;5073302;28;20194;-59
2023/03/20 03:14:42;;;;;;;0.60;0.50;;;22.70;48.70;;;;;;5073475;28;20206;-62
2023/03/20 03:17:15;;;;;;;0.68;0.40;;;22.70;48.70;;;;;;5073579;28;20686;-63
2023/03/20 03:19:49;;;;;;;1.30;0.60;;;22.70;48.60;;;;;;5073415;28;20203;-62
2023/03/20 03:22:20;;;;;;;0.80;0.38;;;22.70;48.70;;;;;;5072885;28;20233;-62
2023/03/20 03:24:53;;;;;;;0.63;0.40;;;22.70;48.70;;;;;;5072861;28;20195;-55
2023/03/20 03:27:27;;;;;;;0.60;0.43;;;22.70;48.70;;;;;;5085330;28;20241;-62
2023/03/20 03:29:59;;;;;;;0.77;0.50;;;22.70;48.70;;;;;;5093923;28;20296;-62
2023/03/20 03:32:34;;;;;;;0.40;0.40;;;22.70;48.70;;;;;;5076638;28;20214;-63
2023/03/20 03:35:07;;;;;;;1.15;0.50;;;22.80;48.80;;;;;;5069638;28;20185;-60
2023/03/20 03:37:55;;;;;;;0.93;0.50;;;22.80;48.80;;;;;;5073278;28;20214;-63
2023/03/20 03:40:36;;;;;;;0.50;0.32;;;22.80;48.80;;;;;;5073096;28;20195;-62
2023/03/20 03:43:13;;;;;;;0.38;0.38;;;22.80;48.80;;;;;;5072134;28;20195;-60
2023/03/20 03:45:47;;;;;;;0.80;0.50;;;22.80;48.80;;;;;;5072162;28;20186;-56
2023/03/20 03:48:22;;;;;;;0.38;0.30;;;22.80;48.80;;;;;;5073103;28;20221;-60
2023/03/20 03:50:55;;;;;;;0.75;0.50;;;22.80;48.90;;;;;;5072600;28;20195;-61
2023/03/20 03:53:28;;;;;;;0.38;0.38;;;22.80;49.00;;;;;;5072993;28;20195;-63
2023/03/20 03:56:06;;;;;;;1.30;0.70;;;22.80;49.00;;;;;;5072263;28;20214;-63
2023/03/20 03:58:39;;;;;;;0.43;0.38;;;22.80;49.00;;;;;;5072291;28;20194;-63
2023/03/20 04:01:13;;;;;;;1.67;0.50;;;22.90;49.10;;;;;;5071910;28;20225;-63
2023/03/20 04:03:47;;;;;;;1.10;0.50;;;22.90;49.10;;;;;;5072859;28;20206;-62
2023/03/20 04:06:19;;;;;;;1.63;0.60;;;22.90;49.10;;;;;;5052974;28;20762;-63
2023/03/20 04:08:50;;;;;;;0.77;0.65;;;22.90;49.10;;;;;;5053185;28;20225;-62
2023/03/20 04:11:25;;;;;;;2.45;0.80;;;22.90;49.20;;;;;;5060798;28;20198;-63
2023/03/20 04:13:56;;;;;;;0.70;0.40;;;23.00;49.30;;;;;;5072589;28;20240;-62
2023/03/20 04:16:27;;;;;;;2.08;0.70;;;22.90;49.20;;;;;;5072251;28;20222;-61
2023/03/20 04:18:58;;;;;;;1.63;0.75;;;23.00;49.30;;;;;;5072840;28;20217;-64
2023/03/20 04:21:29;;;;;;;1.70;0.88;;;23.00;49.30;;;;;;5071422;28;20659;-63
2023/03/20 04:23:59;;;;;;;1.63;0.60;;;23.00;49.40;;;;;;5071746;28;20183;-63
2023/03/20 04:26:32;;;;;;;1.48;0.55;;;23.00;49.40;;;;;;5072753;28;20219;-59
2023/03/20 04:29:03;;;;;;;1.85;0.60;;;23.00;49.40;;;;;;5072361;28;20210;-63
2023/03/20 04:31:34;;;;;;;1.55;0.75;;;23.00;49.40;;;;;;5072393;28;20198;-57
2023/03/20 04:34:04;;;;;;;4.55;1.00;;;23.00;49.50;;;;;;5073760;28;20720;-62
2023/03/20 04:36:35;;;;;;;1.70;0.70;;;23.00;49.60;;;;;;5071340;28;20214;-61
2023/03/20 04:39:06;;;;;;;1.92;1.02;;;23.10;49.80;;;;;;5071605;28;20706;-58
2023/03/20 04:41:38;;;;;;;1.40;0.68;;;23.00;49.70;;;;;;5091897;28;20680;-56
2023/03/20 04:44:09;;;;;;;1.20;0.70;;;23.10;49.80;;;;;;5091491;28;20198;-59
2023/03/20 04:46:40;;;;;;;1.50;0.88;;;23.10;49.80;;;;;;5091932;28;20214;-62
2023/03/20 04:49:10;;;;;;;1.33;0.80;;;23.10;49.80;;;;;;5091345;28;20221;-62
2023/03/20 04:51:41;;;;;;;0.65;0.60;;;23.10;49.80;;;;;;5092017;28;20198;-62
2023/03/20 04:54:12;;;;;;;2.00;0.90;;;23.20;49.90;;;;;;5091269;28;20197;-60
2023/03/20 04:56:44;;;;;;;2.42;0.98;;;23.20;49.80;;;;;;5083150;28;20218;-60
2023/03/20 04:59:15;;;;;;;1.33;0.60;;;23.20;49.80;;;;;;5070735;28;20206;-59
2023/03/20 05:01:45;;;;;;;2.55;0.82;;;23.20;49.80;;;;;;5071616;28;20564;-62
2023/03/20 05:04:16;;;;;;;1.35;0.70;;;23.20;49.80;;;;;;5071579;28;20686;-60
2023/03/20 05:06:48;;;;;;;1.02;0.75;;;23.20;49.80;;;;;;5071241;28;20218;-61
2023/03/20 05:09:18;;;;;;;1.42;0.65;;;23.30;49.80;;;;;;5070010;28;20245;-58
2023/03/20 05:11:51;;;;;;;1.67;0.70;;;23.30;49.80;;;;;;5071319;28;20203;-58
2023/03/20 05:14:22;;;;;;;1.58;0.73;;;23.30;49.80;;;;;;5070800;28;20195;-57
2023/03/20 05:16:52;;;;;;;2.20;0.80;;;23.30;49.80;;;;;;5091324;28;20214;-59
2023/03/20 05:19:23;;;;;;;1.27;0.70;;;23.30;49.80;;;;;;5091169;28;20256;-59
2023/03/20 05:21:54;;;;;;;1.52;0.70;;;23.30;49.80;;;;;;5090927;28;20205;-60
2023/03/20 05:24:25;;;;;;;1.45;0.65;;;23.30;49.90;;;;;;5091202;28;20251;-60
2023/03/20 05:26:57;;;;;;;2.03;0.77;;;23.30;49.80;;;;;;5080456;28;20301;-60
2023/03/20 05:29:28;;;;;;;2.08;0.65;;;23.30;49.80;;;;;;5070509;28;20671;-54
2023/03/20 05:31:59;;;;;;;1.27;0.70;;;23.40;49.90;;;;;;5071036;28;20464;-53
2023/03/20 05:34:29;;;;;;;2.30;1.02;;;23.40;49.90;;;;;;5069888;28;20216;-60
2023/03/20 05:37:00;;;;;;;1.67;0.60;;;23.40;49.80;;;;;;5070709;28;20218;-58
2023/03/20 05:39:31;;;;;;;1.30;0.70;;;23.40;49.80;;;;;;5070048;28;20202;-63
2023/03/20 05:42:03;;;;;;;1.02;0.60;;;23.40;49.80;;;;;;5069905;28;20669;-58
2023/03/20 05:44:34;;;;;;;1.40;0.77;;;23.40;49.80;;;;;;5069937;28;20199;-56
2023/03/20 05:47:04;;;;;;;1.40;0.70;;;23.40;49.80;;;;;;5070355;28;20218;-62
2023/03/20 05:49:35;;;;;;;1.27;0.50;;;23.40;49.80;;;;;;5070929;28;20311;-63
2023/03/20 05:52:06;;;;;;;1.48;0.65;;;23.40;49.80;;;;;;5070432;28;20202;-59
2023/03/20 05:54:36;;;;;;;0.65;0.60;;;23.40;49.80;;;;;;5070360;28;20195;-62
2023/03/20 05:57:09;;;;;;;3.80;1.48;;;23.40;49.80;;;;;;5070498;28;20585;-61
2023/03/20 05:59:40;;;;;;;3.05;1.45;;;23.40;49.80;;;;;;5068943;28;20203;-60
2023/03/20 06:02:10;;;;;;;3.63;1.58;;;23.40;49.80;;;;;;5070608;28;20199;-61
2023/03/20 06:04:41;;;;;;;4.30;2.05;;;23.40;49.80;;;;;;5070616;28;20678;-60
2023/03/20 06:07:12;;;;;;;5.00;2.00;;;23.40;49.70;;;;;;5069619;28;20222;-62
2023/03/20 06:09:42;;;;;;;4.22;1.60;;;23.50;49.90;;;;;;5070711;28;20218;-59
2023/03/20 06:12:15;;;;;;;4.32;1.83;;;23.50;49.80;;;;;;5070975;28;20713;-59
2023/03/20 06:14:46;;;;;;;3.72;2.03;;;23.50;49.80;;;;;;5070121;28;20201;-63
2023/03/20 06:17:16;;;;;;;5.07;1.40;;;23.50;49.80;;;;;;5070168;28;20211;-59
2023/03/20 06:19:47;;;;;;;5.05;1.98;;;23.50;49.80;;;;;;5070083;28;20194;-60
2023/03/20 06:22:18;;;;;;;3.45;1.75;;;23.50;49.80;;;;;;5070363;28;20195;-62
2023/03/20 06:24:48;;;;;;;4.00;1.38;;;23.50;49.80;;;;;;5068984;28;20191;-60
2023/03/20 06:27:21;;;;;;;3.42;1.73;;;23.50;49.80;;;;;;5070022;28;20222;-59
2023/03/20 06:29:52;;;;;;;4.38;1.67;;;23.50;49.80;;;;;;5069767;28;20226;-61
2023/03/20 06:32:22;;;;;;;4.00;1.63;;;23.50;49.70;;;;;;5070672;28;20198;-58
2023/03/20 06:34:53;;;;;;;5.85;1.90;;;23.50;49.70;;;;;;5070581;28;20593;-61
2023/03/20 06:37:24;;;;;;;3.38;1.55;;;23.50;49.70;;;;;;5070755;28;20581;-57
2023/03/20 06:39:54;;;;;;;6.07;2.05;;;23.50;49.70;;;;;;5070773;28;20191;-62
2023/03/20 06:42:27;;;;;;;5.50;1.80;;;23.50;49.70;;;;;;5070921;28;20199;-61
2023/03/20 06:44:58;;;;;;;3.95;2.10;;;23.50;49.70;;;;;;5072120;28;20198;-58
2023/03/20 06:47:28;;;;;;;3.55;1.88;;;23.50;49.70;;;;;;5074532;28;20241;-62
2023/03/20 06:49:59;;;;;;;4.28;1.70;;;23.50;49.70;;;;;;5074424;28;20226;-62
2023/03/20 06:52:30;;;;;;;2.25;1.35;;;23.50;49.70;;;;;;5074371;28;20203;-61
2023/03/20 06:55:00;;;;;;;3.83;1.70;;;23.50;49.70;;;;;;5074846;28;20203;-58
2023/03/20 06:57:33;;;;;;;4.63;1.67;;;23.50;49.70;;;;;;5074383;28;20219;-59
2023/03/20 07:00:04;;;;;;;2.28;1.70;;;23.50;49.70;;;;;;5074362;28;20199;-58
2023/03/20 07:02:34;;;;;;;3.28;1.73;;;23.50;49.70;;;;;;5074432;28;20260;-61
2023/03/20 07:05:05;;;;;;;4.95;1.80;;;23.50;49.70;;;;;;5074138;28;20292;-61
2023/03/20 07:07:36;;;;;;;3.97;1.70;;;23.50;49.60;;;;;;5074121;28;20628;-60
2023/03/20 07:10:08;;;;;;;4.20;1.60;;;23.50;49.70;;;;;;5074056;28;20621;-62
2023/03/20 07:12:44;;;;;;;4.65;2.08;;;23.50;49.60;;;;;;5074174;28;20194;-62
2023/03/20 07:15:15;;;;;;;4.13;1.67;;;23.50;49.60;;;;;;5074284;28;20209;-59
2023/03/20 07:17:46;;;;;;;3.25;1.55;;;23.50;49.60;;;;;;5074020;28;20210;-63
2023/03/20 07:20:17;;;;;;;4.82;1.90;;;23.50;49.60;;;;;;5074208;28;20201;-61
2023/03/20 07:22:49;;;;;;;4.30;1.52;;;23.50;49.60;;;;;;5073979;28;20202;-59
2023/03/20 07:25:20;;;;;;;2.53;1.35;;;23.50;49.60;;;;;;5073886;28;20191;-60
2023/03/20 07:27:52;;;;;;;3.38;1.58;;;23.50;49.60;;;;;;5073703;28;20231;-62
2023/03/20 07:30:23;;;;;;;4.45;1.52;;;23.50;49.60;;;;;;5073681;28;20226;-62
2023/03/20 07:32:54;;;;;;;4.10;1.80;;;23.50;49.60;;;;;;5073989;28;20213;-61
2023/03/20 07:35:25;;;;;;;4.25;1.23;;;23.50;49.60;;;;;;5073869;28;20198;-61
2023/03/20 07:37:55;;;;;;;2.55;1.42;;;23.50;49.60;;;;;;5071831;28;20215;-62
2023/03/20 07:40:26;;;;;;;3.60;1.50;;;23.50;49.50;;;;;;5073817;28;20210;-62
2023/03/20 07:43:00;;;;;;;4.63;1.63;;;23.50;49.60;;;;;;5073642;28;20195;-61
2023/03/20 07:45:31;;;;;;;2.35;1.45;;;23.50;49.60;;;;;;5072840;28;20203;-60
2023/03/20 07:48:02;;;;;;;3.83;1.42;;;23.50;49.60;;;;;;5073023;28;20722;-62
2023/03/20 07:50:32;;;;;;;4.63;1.60;;;23.50;49.50;;;;;;5073174;28;20631;-61
2023/03/20 07:53:03;;;;;;;4.05;1.55;;;23.50;50.10;;;;;;5073238;28;20203;-63
2023/03/20 07:55:34;;;;;;;3.13;1.50;;;23.50;49.50;;;;;;5073211;28;20271;-61
2023/03/20 07:58:07;;;;;;;4.45;1.48;;;23.50;49.50;;;;;;5073214;28;20206;-58
2023/03/20 08:00:38;;;;;;;4.43;1.30;;;23.40;49.50;;;;;;5072763;28;20195;-58
2023/03/20 08:03:08;;;;;;;3.78;1.30;;;23.50;49.60;;;;;;5073111;28;20210;-56
2023/03/20 08:05:39;;;;;;;7.65;1.73;;;23.50;49.50;;;;;;5073044;28;20203;-61
2023/03/20 08:08:10;;;;;;;4.20;1.50;;;23.50;49.50;;;;;;5073259;28;20205;-59
2023/03/20 08:10:40;;;;;;;4.22;1.42;;;23.50;50.20;;;;;;5073124;28;20222;-59
2023/03/20 08:13:13;;;;;;;3.03;1.60;;;23.50;49.60;;;;;;5072989;28;20677;-63
2023/03/20 08:15:43;;;;;;;3.30;1.20;;;23.40;49.50;;;;;;5072623;28;20195;-58
2023/03/20 08:18:14;;;;;;;2.58;1.30;;;23.40;49.50;;;;;;5072901;28;20195;-58
2023/03/20 08:20:45;;;;;;;3.58;1.23;;;23.40;49.90;;;;;;5073027;28;20199;-60
2023/03/20 08:23:16;;;;;;;3.45;1.58;;;23.40;49.60;;;;;;5072516;28;20654;-60
2023/03/20 08:25:50;;;;;;;6.35;1.38;;;23.40;49.50;;;;;;5072474;28;20607;-57
2023/03/20 08:28:24;;;;;;;2.42;1.10;;;23.40;49.40;;;;;;5072550;28;20229;-59
2023/03/20 08:30:54;;;;;;;3.95;1.40;;;23.40;49.40;;;;;;5072583;28;20305;-61
2023/03/20 08:33:25;;;;;;;1.25;1.10;;;23.40;49.40;;;;;;5072711;28;20192;-63
2023/03/20 08:35:59;;;;;;;1.85;1.02;;;23.40;49.40;;;;;;5072607;28;20691;-60
2023/03/20 08:38:30;;;;;;;1.77;1.10;;;23.40;49.50;;;;;;5072415;28;20201;-60
2023/03/20 08:41:00;;;;;;;2.72;1.15;;;23.40;49.60;;;;;;5072425;28;20205;-63
2023/03/20 08:43:33;;;;;;;2.75;1.05;;;23.40;49.60;;;;;;5072359;28;20202;-63
2023/03/20 08:46:03;;;;;;;2.47;1.10;;;23.40;49.70;;;;;;5072095;28;20215;-63
2023/03/20 08:48:34;;;;;;;2.17;1.02;;;23.40;49.60;;;;;;5072240;28;20615;-63
2023/03/20 08:51:06;;;;;;;3.08;1.08;;;23.40;49.60;;;;;;5071959;28;20218;-63
2023/03/20 08:53:37;;;;;;;2.95;1.00;;;23.40;49.60;;;;;;5072110;28;20234;-63
2023/03/20 08:56:08;;;;;;;2.05;0.98;;;23.40;49.60;;;;;;5066661;28;20223;-61
2023/03/20 08:58:40;;;;;;;2.58;0.98;;;23.40;49.60;;;;;;5074629;28;20191;-62
2023/03/20 09:01:14;;;;;;;2.25;0.90;;;23.40;49.60;;;;;;5070358;28;20207;-60
2023/03/20 09:03:45;;;;;;;1.67;0.80;;;23.40;49.60;;;;;;5071087;28;20186;-62
2023/03/20 09:06:15;;;;;;;1.50;0.90;;;23.40;49.60;;;;;;5070773;28;20272;-63
2023/03/20 09:08:46;;;;;;;2.25;1.10;;;23.40;49.60;;;;;;5071485;28;20198;-63
2023/03/20 09:11:17;;;;;;;1.08;0.73;;;23.40;49.60;;;;;;5071723;28;20215;-64
2023/03/20 09:13:49;;;;;;;2.28;1.17;;;23.40;49.60;;;;;;5070926;28;20206;-59
2023/03/20 09:16:20;;;;;;;3.55;1.20;;;23.40;50.00;;;;;;5070990;28;20234;-63
2023/03/20 09:18:51;;;;;;;2.03;1.02;;;23.40;50.00;;;;;;5070927;28;20241;-61
2023/03/20 09:21:21;;;;;;;3.35;0.95;;;23.40;50.00;;;;;;5070807;28;20195;-63
2023/03/20 09:23:52;;;;;;;3.20;0.93;;;23.40;49.90;;;;;;5071054;28;20702;-61
2023/03/20 09:26:23;;;;;;;1.77;0.82;;;23.40;49.90;;;;;;5070921;28;20226;-61
2023/03/20 09:28:55;;;;;;;1.20;0.90;;;23.40;49.90;;;;;;5071046;28;20194;-60
2023/03/20 09:31:26;;;;;;;1.80;1.02;;;23.40;49.80;;;;;;5070175;28;20233;-63
2023/03/20 09:33:57;;;;;;;2.63;0.90;;;23.40;49.80;;;;;;5070661;28;20191;-63
2023/03/20 09:36:27;;;;;;;2.30;0.90;;;23.40;49.80;;;;;;5071139;28;20211;-63
2023/03/20 09:38:58;;;;;;;1.85;0.80;;;23.40;49.80;;;;;;5070278;28;20198;-59
2023/03/20 09:41:35;;;;;;;1.95;0.88;;;23.40;49.70;;;;;;5070266;28;20195;-58
2023/03/20 09:44:19;;;;;;;3.05;1.30;;;23.40;49.70;;;;;;5070825;28;20198;-59
2023/03/20 09:47:07;;;;;;;5.03;0.98;;;23.40;49.70;;;;;;5069925;28;20206;-61
2023/03/20 09:49:47;;;;;;;1.67;1.13;;;23.40;49.70;;;;;;5070927;28;20256;-61
2023/03/20 09:52:25;;;;;;;1.70;0.98;;;23.30;49.60;;;;;;5069597;28;20199;-62
2023/03/20 09:55:00;;;;;;;1.65;1.00;;;23.30;49.60;;;;;;5069923;28;20198;-60
2023/03/20 09:57:36;;;;;;;2.28;0.95;;;23.30;49.70;;;;;;5069980;28;20687;-62
2023/03/20 10:00:15;;;;;;;2.05;1.00;;;23.30;49.60;;;;;;5070307;28;20207;-59
2023/03/20 10:02:50;;;;;;;1.15;0.70;;;23.30;49.70;;;;;;5070608;28;20195;-63
2023/03/20 10:05:27;;;;;;;1.75;0.80;;;23.30;49.70;;;;;;5070525;28;20202;-61
2023/03/20 10:08:00;;;;;;;2.50;0.80;;;23.30;49.70;;;;;;5070684;28;20201;-62
2023/03/20 10:10:39;;;;;;;1.42;0.82;;;23.30;49.70;;;;;;5070026;28;20780;-63
2023/03/20 10:13:32;;;;;;;1.10;0.77;;;23.30;49.70;;;;;;5070095;28;20191;-60
2023/03/20 10:16:13;;;;;;;1.30;0.90;;;23.30;49.70;;;;;;5057574;28;20219;-58
2023/03/20 10:18:51;;;;;;;3.22;0.98;;;23.30;49.70;;;;;;5071611;28;20197;-63
2023/03/20 10:21:28;;;;;;;1.23;0.80;;;23.30;49.70;;;;;;5074000;28;20226;-62
2023/03/20 10:24:04;;;;;;;0.93;0.75;;;23.30;49.70;;;;;;5074883;28;20190;-61
2023/03/20 10:26:37;;;;;;;0.80;0.70;;;23.20;49.70;;;;;;5073552;28;20736;-59
2023/03/20 10:29:18;;;;;;;1.15;0.70;;;23.20;49.60;;;;;;5074288;28;20199;-59
2023/03/20 10:31:55;;;;;;;1.08;0.60;;;23.20;49.60;;;;;;5073053;28;20214;-62
2023/03/20 10:34:36;;;;;;;1.77;0.60;;;23.20;49.60;;;;;;5074375;28;20217;-60
2023/03/20 10:37:21;;;;;;;1.63;0.70;;;23.20;49.60;;;;;;5073386;28;20207;-62
2023/03/20 10:40:01;;;;;;;2.67;0.82;;;23.20;49.70;;;;;;5074409;28;20195;-61
2023/03/20 10:42:35;;;;;;;1.40;0.80;;;23.20;49.70;;;;;;5074027;28;20198;-62
2023/03/20 10:45:11;;;;;;;1.17;0.90;;;23.20;49.70;;;;;;5073732;28;20202;-61
2023/03/20 10:47:47;;;;;;;1.00;0.77;;;23.10;49.70;;;;;;5073616;28;20935;-63
2023/03/20 10:50:20;;;;;;;3.75;0.90;;;23.10;49.70;;;;;;5074243;28;20646;-62
2023/03/20 10:52:54;;;;;;;1.60;0.80;;;23.10;49.70;;;;;;5073888;28;20194;-60
2023/03/20 10:55:27;;;;;;;1.70;0.88;;;23.10;49.80;;;;;;5074592;28;20198;-61
2023/03/20 10:58:02;;;;;;;0.98;0.73;;;23.10;49.80;;;;;;5073216;28;20222;-60
2023/03/20 11:00:33;;;;;;;1.45;0.80;;;23.20;49.80;;;;;;5074585;28;20677;-60
2023/03/20 11:03:06;;;;;;;0.93;0.85;;;23.10;49.80;;;;;;5074212;28;20198;-58
2023/03/20 11:05:38;;;;;;;0.82;0.70;;;23.10;49.80;;;;;;5073548;28;20210;-62
2023/03/20 11:08:10;;;;;;;1.65;0.90;;;23.10;49.80;;;;;;5074193;28;20277;-58
2023/03/20 11:10:42;;;;;;;0.95;0.80;;;23.10;49.90;;;;;;5073198;28;20222;-60
2023/03/20 11:13:28;;;;;;;2.75;0.80;;;23.10;49.90;;;;;;5073206;28;20195;-63
2023/03/20 11:16:08;;;;;;;1.45;0.73;;;23.10;49.90;;;;;;5073119;28;20266;-61
2023/03/20 11:18:43;;;;;;;1.40;0.80;;;23.10;50.00;;;;;;5073409;28;20194;-61
2023/03/20 11:21:24;;;;;;;0.80;0.60;;;23.10;50.00;;;;;;5073417;28;20205;-63
2023/03/20 11:23:56;;;;;;;0.80;0.60;;;23.10;50.00;;;;;;5072767;28;20206;-64
2023/03/20 11:26:37;;;;;;;0.85;0.60;;;23.10;50.00;;;;;;5072834;28;20229;-63
2023/03/20 11:29:14;;;;;;;1.20;0.75;;;23.00;50.00;;;;;;5093902;28;20198;-62
2023/03/20 11:31:45;;;;;;;2.30;1.10;;;23.00;50.00;;;;;;5092693;28;20225;-64
2023/03/20 11:34:30;;;;;;;1.48;0.68;;;23.00;50.00;;;;;;5092858;28;20198;-63
2023/03/20 11:37:02;;;;;;;0.68;0.60;;;23.00;50.10;;;;;;5093892;28;20218;-61
2023/03/20 11:39:36;;;;;;;2.65;0.70;;;23.00;50.10;;;;;;5094199;28;20213;-63
2023/03/20 11:42:22;;;;;;;0.80;0.47;;;23.00;50.10;;;;;;5081183;28;20245;-62
2023/03/20 11:45:01;;;;;;;1.15;0.70;;;23.00;50.10;;;;;;5073518;28;20198;-62
2023/03/20 11:47:35;;;;;;;2.03;0.80;;;23.00;50.20;;;;;;5073327;28;20222;-62
2023/03/20 11:50:25;;;;;;;0.70;0.50;;;23.00;50.20;;;;;;5073960;28;20234;-62
2023/03/20 11:52:56;;;;;;;1.33;0.60;;;23.00;50.30;;;;;;5073566;28;20248;-63
2023/03/20 11:55:31;;;;;;;1.55;0.63;;;23.00;50.30;;;;;;5073765;28;20194;-63
2023/03/20 11:58:02;;;;;;;2.38;0.50;;;23.00;50.30;;;;;;5073708;28;20205;-63
2023/03/20 12:00:39;;;;;;;0.90;0.70;;;23.00;50.40;;;;;;5073270;28;20659;-62
2023/03/20 12:03:45;;;;;;;0.90;0.60;;;22.90;50.30;;;;;;5073621;28;20198;-63
2023/03/20 12:06:23;;;;;;;1.58;0.60;;;22.90;50.40;;;;;;5073096;28;20210;-63
2023/03/20 12:08:58;;;;;;;1.05;0.70;;;23.00;50.30;;;;;;5072957;28;20191;-63
2023/03/20 12:11:48;;;;;;;1.42;0.80;;;23.00;50.30;;;;;;5072851;28;20229;-62
2023/03/20 12:14:29;;;;;;;0.80;0.50;;;22.90;50.30;;;;;;5072853;28;20241;-63
2023/03/20 12:17:24;;;;;;;0.80;0.52;;;22.90;50.90;;;;;;5072379;28;20694;-63
2023/03/20 12:19:57;;;;;;;1.38;0.70;;;22.90;50.20;;;;;;5073154;28;20194;-63
2023/03/20 12:22:35;;;;;;;3.97;0.60;;;22.90;50.20;;;;;;5073125;28;20202;-62
2023/03/20 12:25:15;;;;;;;1.25;0.60;;;22.90;50.10;;;;;;5072648;28;20190;-63
2023/03/20 12:27:52;;;;;;;0.82;0.60;;;22.90;50.10;;;;;;5072472;28;20785;-62
2023/03/20 12:30:31;;;;;;;1.17;0.70;;;22.90;50.10;;;;;;5072351;28;20194;-62
2023/03/20 12:33:08;;;;;;;0.75;0.50;;;22.90;50.00;;;;;;5072080;28;20187;-63
2023/03/20 12:35:43;;;;;;;1.13;0.50;;;22.90;50.00;;;;;;5072977;28;20658;-63
2023/03/20 12:38:23;;;;;;;0.77;0.50;;;22.90;50.00;;;;;;5073009;28;20209;-60
2023/03/20 12:40:58;;;;;;;1.75;0.60;;;22.90;50.00;;;;;;5072243;28;20186;-62
2023/03/20 12:43:32;;;;;;;2.03;0.65;;;22.90;49.90;;;;;;5071801;28;20202;-62
2023/03/20 12:46:10;;;;;;;1.35;0.60;;;22.90;49.90;;;;;;5072278;28;20214;-63
2023/03/20 12:48:49;;;;;;;2.70;0.70;;;22.90;49.90;;;;;;5072541;28;20224;-63
2023/03/20 12:51:26;;;;;;;2.03;0.55;;;22.80;49.80;;;;;;5072205;28;20670;-63
2023/03/20 12:54:13;;;;;;;0.93;0.40;;;22.80;49.80;;;;;;5072165;28;20191;-63
2023/03/20 12:57:00;;;;;;;0.75;0.60;;;22.80;49.80;;;;;;5072159;28;20721;-59
2023/03/20 12:59:37;;;;;;;1.23;0.45;;;22.80;49.80;;;;;;5072374;28;20309;-63
2023/03/20 13:02:32;;;;;;;0.43;0.43;;;22.80;49.70;;;;;;5071818;28;20203;-63
2023/03/20 13:05:11;;;;;;;1.42;0.60;;;22.80;49.70;;;;;;5071701;28;20571;-61
2023/03/20 13:08:01;;;;;;;1.10;0.50;;;22.80;49.60;;;;;;5071863;28;20214;-62
2023/03/20 13:10:38;;;;;;;0.70;0.45;;;22.80;49.50;;;;;;5071815;28;20198;-64
2023/03/20 13:13:20;;;;;;;0.57;0.40;;;22.80;49.40;;;;;;5072051;28;20264;-63
2023/03/20 13:16:01;;;;;;;2.08;0.50;;;22.80;49.30;;;;;;5071400;28;20198;-62
2023/03/20 13:18:49;;;;;;;0.52;0.30;;;22.80;49.30;;;;;;5071031;28;20194;-62
2023/03/20 13:21:26;;;;;;;3.08;0.70;;;22.80;49.20;;;;;;5071152;28;20595;-62
2023/03/20 13:24:02;;;;;;;2.15;0.50;;;22.70;49.00;;;;;;5071780;28;20221;-64
2023/03/20 13:26:41;;;;;;;0.57;0.43;;;22.70;49.00;;;;;;5071821;28;20223;-64